Time;durP1;ratioP1;P1;durP2;ratioP2;P2;SDS_P1;SDS_P2;PMS_P1;PMS_P2;Temp;Humidity;BMP_temperature;BMP_pressure;BME280_temperature;BME280_humidity;BME280_pressure;Samples;Min_cycle;Max_cycle;Signal;HPM_P1;HPM_P2
2021/05/19 00:01:56;;;;;;;18.05;11.45;;;;;;;12.31;68.79;98450.15;262840;1098;114811;-65
2021/05/19 00:07:00;;;;;;;17.37;10.33;;;;;;;12.31;68.77;98447.48;263205;1104;114893;-66
2021/05/19 00:12:05;;;;;;;18.65;11.73;;;;;;;12.29;69.59;98441.41;263141;1099;115241;-67
2021/05/19 00:17:10;;;;;;;19.10;12.48;;;;;;;12.23;69.47;98442.75;263005;1103;114631;-67
2021/05/19 00:22:14;;;;;;;22.18;13.38;;;;;;;12.16;70.09;98437.99;262189;1099;114978;-65
2021/05/19 00:27:20;;;;;;;19.57;13.07;;;;;;;12.10;69.69;98441.16;262519;1101;114845;-66
2021/05/19 00:32:26;;;;;;;20.23;13.45;;;;;;;12.06;69.64;98438.73;263031;1100;114775;-68
2021/05/19 00:37:30;;;;;;;;;;;;;;;12.06;69.61;98444.06;262698;1103;115304;-66
2021/05/19 00:42:34;;;;;;;20.18;13.38;;;;;;;12.05;70.00;98442.34;262802;1099;101220;-64
2021/05/19 00:47:43;;;;;;;19.68;12.78;;;;;;;12.01;70.05;98443.56;262325;1101;114880;-67
2021/05/19 00:52:48;;;;;;;22.90;14.40;;;;;;;11.96;69.97;98442.23;262010;1100;114844;-66
2021/05/19 00:57:55;;;;;;;21.60;14.00;;;;;;;11.90;69.35;98445.38;262424;1101;115101;-66
2021/05/19 01:03:00;;;;;;;18.73;13.70;;;;;;;11.81;69.65;98452.21;262867;1098;115092;-66
2021/05/19 01:13:28;;;;;;;21.67;14.93;;;;;;;11.81;69.97;98444.22;263195;1099;115401;-68
2021/05/19 01:18:32;;;;;;;24.85;16.93;;;;;;;11.77;69.53;98443.60;263174;1104;114596;-64
2021/05/19 01:23:38;;;;;;;21.25;15.15;;;;;;;11.75;69.59;98447.34;263198;1099;114811;-65
2021/05/19 01:28:43;;;;;;;22.75;16.63;;;;;;;11.70;69.97;98444.19;262246;1101;115160;-63
2021/05/19 01:33:51;;;;;;;24.20;16.50;;;;;;;11.64;70.41;98437.50;263197;1098;114713;-66
2021/05/19 01:38:55;;;;;;;20.80;15.40;;;;;;;11.64;69.69;98449.98;263191;1102;114757;-66
2021/05/19 01:44:15;;;;;;;26.08;16.15;;;;;;;11.62;70.43;98450.12;262245;1099;114942;-66
2021/05/19 01:49:42;;;;;;;24.57;16.17;;;;;;;11.60;69.92;98458.21;262736;1101;114937;-68
2021/05/19 01:54:49;;;;;;;25.75;16.35;;;;;;;11.55;70.44;98457.72;263169;1098;115324;-66
2021/05/19 01:59:55;;;;;;;23.88;16.30;;;;;;;11.52;69.92;98452.63;263123;1103;115585;-68
2021/05/19 02:05:00;;;;;;;27.40;15.50;;;;;;;11.45;69.69;98459.38;262711;1099;115112;-67
2021/05/19 02:10:10;;;;;;;24.50;15.65;;;;;;;11.41;70.05;98454.38;262561;1103;114999;-68
2021/05/19 02:15:17;;;;;;;25.83;15.73;;;;;;;11.41;69.88;98463.21;263162;1099;114603;-65
2021/05/19 02:20:23;;;;;;;28.93;17.20;;;;;;;11.44;70.82;98467.47;262543;1103;114521;-65
2021/05/19 02:25:28;;;;;;;28.78;17.63;;;;;;;11.43;70.15;98471.95;262688;1098;114961;-64
2021/05/19 02:30:33;;;;;;;24.08;16.95;;;;;;;11.39;70.21;98475.81;262213;1102;114982;-65
2021/05/19 02:35:39;;;;;;;24.40;17.05;;;;;;;11.32;70.00;98478.09;263217;1099;115189;-67
2021/05/19 02:40:44;;;;;;;26.17;15.30;;;;;;;11.30;69.90;98474.67;262530;1101;115596;-66
2021/05/19 02:45:50;;;;;;;26.25;16.55;;;;;;;11.31;70.26;98468.41;261526;1103;114693;-66
2021/05/19 02:50:58;;;;;;;22.47;16.90;;;;;;;11.28;70.30;98468.63;263172;1100;115127;-68
2021/05/19 02:56:04;;;;;;;;;;;;;;;11.26;69.94;98467.03;262800;1099;114890;-65
2021/05/19 03:01:08;;;;;;;25.80;17.45;;;;;;;11.17;70.13;98478.36;262974;1102;103347;-67
2021/05/19 03:06:13;;;;;;;26.57;17.93;;;;;;;11.10;70.03;98483.28;263074;1098;114501;-66
2021/05/19 03:11:17;;;;;;;25.93;16.78;;;;;;;11.05;70.19;98486.29;263191;1102;115179;-66
2021/05/19 03:16:22;;;;;;;25.48;16.75;;;;;;;11.02;69.97;98494.50;263209;1099;115086;-65
2021/05/19 03:21:27;;;;;;;26.87;18.30;;;;;;;11.01;69.76;98499.95;262978;1099;115020;-68
2021/05/19 03:26:33;;;;;;;28.83;18.70;;;;;;;11.01;70.27;98507.94;263194;1099;115014;-67
2021/05/19 03:31:37;;;;;;;29.30;19.17;;;;;;;11.02;70.10;98506.97;263085;1101;114498;-67
2021/05/19 03:36:42;;;;;;;33.37;21.20;;;;;;;10.99;69.76;98505.36;263163;1099;115180;-66
2021/05/19 03:41:46;;;;;;;27.75;20.35;;;;;;;10.97;69.88;98507.31;262159;1104;114661;-69
2021/05/19 03:46:53;;;;;;;25.53;19.28;;;;;;;10.95;69.71;98508.38;262988;1099;115036;-64
2021/05/19 03:51:57;;;;;;;27.53;19.43;;;;;;;10.94;69.90;98510.19;263187;1103;115279;-66
2021/05/19 03:57:03;;;;;;;30.30;20.15;;;;;;;10.95;69.92;98509.22;263223;1099;114357;-67
2021/05/19 04:02:08;;;;;;;27.55;20.58;;;;;;;10.96;69.87;98516.23;262832;1103;115149;-66
2021/05/19 04:07:16;;;;;;;31.58;22.75;;;;;;;10.98;70.49;98522.31;263132;1099;115102;-68
2021/05/19 04:12:21;;;;;;;35.68;22.68;;;;;;;11.01;70.44;98524.76;262373;1103;114838;-67
2021/05/19 04:17:25;;;;;;;;;;;;;;;11.00;70.37;98532.84;262879;1098;114862;-64
2021/05/19 04:22:30;;;;;;;36.17;23.10;;;;;;;10.98;70.01;98542.77;262457;1102;103003;-66
2021/05/19 04:27:34;;;;;;;42.60;25.23;;;;;;;11.04;70.50;98544.97;263203;1098;114549;-66
2021/05/19 04:32:39;;;;;;;41.25;26.10;;;;;;;11.11;70.18;98552.42;262875;1103;115066;-66
2021/05/19 04:37:43;;;;;;;34.23;24.70;;;;;;;11.18;70.51;98549.33;262869;1098;115021;-65
2021/05/19 04:42:48;;;;;;;40.45;26.13;;;;;;;11.19;70.12;98554.53;262548;1102;114802;-67
2021/05/19 04:48:14;;;;;;;;;;;;;;;;;;;;;
2021/05/19 04:53:23;;;;;;;33.13;23.93;;;;;;;11.24;70.24;98580.81;261255;1101;115248;-66
2021/05/19 04:58:33;;;;;;;34.48;22.45;;;;;;;11.35;70.70;98578.25;261225;1098;114886;-67
2021/05/19 05:03:41;;;;;;;32.83;23.17;;;;;;;11.40;70.80;98581.41;261077;1101;115953;-66
2021/05/19 05:08:45;;;;;;;31.33;21.17;;;;;;;11.47;70.39;98585.33;262228;1098;115158;-66
2021/05/19 05:13:49;;;;;;;32.53;21.70;;;;;;;11.52;70.07;98596.52;263145;1103;114823;-68
2021/05/19 05:18:53;;;;;;;32.30;20.80;;;;;;;11.54;70.54;98594.58;263149;1099;115192;-65
2021/05/19 05:23:57;;;;;;;31.28;18.78;;;;;;;11.56;69.96;98592.66;263193;1103;114784;-69
2021/05/19 05:29:00;;;;;;;31.33;19.03;;;;;;;11.65;69.82;98579.61;263220;1099;115188;-66
2021/05/19 05:34:04;;;;;;;27.55;19.80;;;;;;;11.73;70.14;98578.09;263187;1103;115501;-67
2021/05/19 05:39:08;;;;;;;35.77;19.67;;;;;;;11.79;69.84;98582.13;263135;1099;115548;-67
2021/05/19 05:44:12;;;;;;;27.85;18.75;;;;;;;11.77;69.16;98576.89;262752;1104;115227;-65
2021/05/19 05:49:16;;;;;;;28.35;19.25;;;;;;;11.78;69.50;98567.92;263056;1099;115370;-63
2021/05/19 05:54:19;;;;;;;26.93;16.68;;;;;;;11.81;69.56;98573.03;262909;1104;115492;-66
2021/05/19 05:59:24;;;;;;;30.68;18.95;;;;;;;11.91;70.07;98578.56;263133;1099;115512;-66
2021/05/19 06:04:29;;;;;;;31.25;19.28;;;;;;;11.99;69.48;98578.86;262812;1103;114590;-65
2021/05/19 06:09:32;;;;;;;25.13;16.43;;;;;;;12.14;69.93;98589.33;263136;1099;115331;-67
2021/05/19 06:14:36;;;;;;;30.30;18.08;;;;;;;12.21;69.75;98601.23;263153;1104;114964;-64
2021/05/19 06:19:40;;;;;;;25.43;17.60;;;;;;;12.22;69.04;98602.92;263137;1100;115292;-65
2021/05/19 06:24:45;;;;;;;25.88;16.13;;;;;;;12.23;69.31;98593.98;263167;1104;116211;-64
2021/05/19 06:29:48;;;;;;;30.05;17.18;;;;;;;12.32;69.19;98598.59;262883;1099;114977;-65
2021/05/19 06:34:53;;;;;;;24.13;15.77;;;;;;;12.43;69.26;98597.77;263116;1104;115827;-65
2021/05/19 06:39:57;;;;;;;;;;;;;;;12.51;69.71;98596.22;263128;1099;115077;-67
2021/05/19 06:45:01;;;;;;;26.95;17.38;;;;;;;12.60;68.70;98608.02;263334;1099;101057;-65
2021/05/19 06:50:09;;;;;;;24.37;16.13;;;;;;;12.66;68.89;98601.33;263098;1100;114654;-64
2021/05/19 06:55:13;;;;;;;;;;;;;;;12.71;69.12;98604.52;263210;1103;115536;-67
2021/05/19 07:00:18;;;;;;;26.23;17.00;;;;;;;12.76;68.96;98610.33;263165;1098;101667;-68
2021/05/19 07:05:22;;;;;;;;;;;;;;;12.75;68.21;98612.16;263199;1103;115312;-68
2021/05/19 07:10:25;;;;;;;26.18;16.85;;;;;;;12.83;69.13;98602.69;263083;1100;101978;-65
2021/05/19 07:15:33;;;;;;;25.23;15.83;;;;;;;12.92;68.71;98605.49;263163;1102;114955;-66
2021/05/19 07:20:36;;;;;;;25.50;16.38;;;;;;;13.01;68.63;98607.45;263084;1098;115573;-66
2021/05/19 07:25:41;;;;;;;21.50;14.00;;;;;;;13.15;68.59;98603.69;262958;1103;115188;-66
2021/05/19 07:30:47;;;;;;;19.10;12.83;;;;;;;13.23;68.27;98611.08;262880;1098;114750;-66
2021/05/19 07:35:56;;;;;;;21.65;14.43;;;;;;;13.27;67.86;98609.05;263188;1103;115653;-65
2021/05/19 07:41:00;;;;;;;27.63;15.10;;;;;;;13.31;68.02;98618.51;262941;1099;114860;-66
2021/05/19 07:46:04;;;;;;;20.63;11.63;;;;;;;13.32;68.24;98612.22;263127;1103;114693;-67
2021/05/19 07:51:07;;;;;;;17.13;11.97;;;;;;;13.37;68.08;98623.38;262997;1098;114782;-65
2021/05/19 07:56:22;;;;;;;21.93;12.75;;;;;;;13.41;67.14;98614.97;263022;1102;115457;-67
2021/05/19 08:06:27;;;;;;;16.13;11.67;;;;;;;13.58;66.85;98618.11;263178;1103;114665;-67
2021/05/19 08:11:29;;;;;;;15.13;10.73;;;;;;;13.60;66.84;98624.20;263182;1099;115295;-67
2021/05/19 08:16:32;;;;;;;14.60;10.40;;;;;;;13.66;67.20;98632.57;263156;1101;114895;-67
2021/05/19 08:21:35;;;;;;;15.83;10.83;;;;;;;13.71;67.01;98624.16;263173;1099;115275;-67
2021/05/19 08:26:40;;;;;;;13.08;8.60;;;;;;;13.70;66.35;98627.82;263160;1101;114997;-67
2021/05/19 08:31:43;;;;;;;13.40;9.23;;;;;;;13.70;66.30;98634.02;263143;1099;115281;-67
2021/05/19 08:36:48;;;;;;;15.70;9.63;;;;;;;13.73;66.75;98627.58;263207;1101;115060;-67
2021/05/19 08:41:53;;;;;;;13.38;9.80;;;;;;;13.80;66.01;98631.44;263104;1098;115015;-67
2021/05/19 08:46:57;;;;;;;12.75;9.63;;;;;;;13.82;66.50;98634.83;263107;1100;114734;-67
2021/05/19 08:52:01;;;;;;;13.40;9.83;;;;;;;13.79;66.31;98627.08;263134;1099;114917;-67
2021/05/19 08:57:05;;;;;;;14.17;10.13;;;;;;;13.83;65.86;98625.84;263167;1102;115156;-67
2021/05/19 09:02:11;;;;;;;11.43;8.93;;;;;;;13.94;66.25;98625.80;263191;1100;115136;-67
2021/05/19 09:07:19;;;;;;;11.20;9.35;;;;;;;14.09;66.23;98612.13;263134;1102;116026;-68
2021/05/19 09:12:24;;;;;;;13.63;10.50;;;;;;;14.29;66.37;98616.66;263119;1098;115127;-68
2021/05/19 09:17:34;;;;;;;17.18;11.50;;;;;;;14.53;66.27;98605.73;263116;1100;115276;-68
2021/05/19 09:22:41;;;;;;;13.10;10.27;;;;;;;14.71;65.89;98613.16;263158;1099;115085;-68
2021/05/19 09:27:48;;;;;;;13.50;10.07;;;;;;;14.81;65.47;98606.91;263115;1102;115323;-68
2021/05/19 09:32:52;;;;;;;16.55;10.28;;;;;;;14.87;65.21;98614.39;263103;1099;115336;-68
2021/05/19 09:37:55;;;;;;;11.85;10.30;;;;;;;14.95;64.60;98603.03;263112;1104;115704;-68
2021/05/19 09:43:00;;;;;;;12.63;9.90;;;;;;;15.11;64.43;98591.80;263148;1099;115526;-68
2021/05/19 09:48:04;;;;;;;9.70;7.10;;;;;;;15.23;63.92;98596.09;263212;1101;115345;-68
2021/05/19 09:53:15;;;;;;;9.18;5.43;;;;;;;15.33;63.58;98586.25;263109;1100;115487;-68
2021/05/19 09:58:40;;;;;;;7.90;6.47;;;;;;;15.43;63.37;98580.08;263108;1100;115888;-66
2021/05/19 10:03:46;;;;;;;10.98;8.23;;;;;;;15.44;62.86;98577.23;261532;1104;115181;-66
2021/05/19 10:08:51;;;;;;;9.60;7.25;;;;;;;15.49;62.87;98571.45;262677;1101;115695;-67
2021/05/19 10:13:55;;;;;;;;;;;;;;;15.65;62.81;98563.73;263122;1098;115699;-67
2021/05/19 10:19:00;;;;;;;11.43;7.50;;;;;;;15.79;62.65;98563.38;263209;1103;101877;-67
2021/05/19 10:24:11;;;;;;;9.28;7.70;;;;;;;15.92;62.12;98551.50;263039;1099;116218;-67
2021/05/19 10:29:14;;;;;;;8.58;7.58;;;;;;;15.94;62.09;98554.91;263126;1104;116046;-69
2021/05/19 10:34:44;;;;;;;6.70;6.00;;;;;;;16.16;62.36;98551.07;263091;1099;115773;-68
2021/05/19 10:39:48;;;;;;;8.50;5.77;;;;;;;16.22;61.87;98551.34;263125;1101;114423;-68
2021/05/19 10:45:03;;;;;;;7.15;4.88;;;;;;;16.38;61.88;98557.98;263066;1099;114833;-68
2021/05/19 10:50:20;;;;;;;6.53;3.47;;;;;;;16.61;61.89;98556.67;263105;1102;114615;-68
2021/05/19 11:00:58;;;;;;;5.20;3.68;;;;;;;17.00;61.04;98556.56;263119;1103;115192;-67
2021/05/19 11:06:04;;;;;;;6.80;3.67;;;;;;;17.31;60.96;98553.59;263131;1099;114894;-67
2021/05/19 11:11:22;;;;;;;5.20;3.07;;;;;;;17.40;60.53;98558.92;263160;1101;114605;-67
2021/05/19 11:17:14;;;;;;;5.83;2.90;;;;;;;17.26;59.09;98556.73;263128;1099;114193;-67
2021/05/19 11:22:21;;;;;;;3.97;2.40;;;;;;;17.08;59.17;98559.34;263195;1102;114752;-67
2021/05/19 11:27:31;;;;;;;3.20;2.83;;;;;;;17.29;59.00;98551.06;263111;1099;114735;-68
2021/05/19 11:32:36;;;;;;;6.07;2.90;;;;;;;17.61;59.03;98541.66;263174;1103;114656;-67
2021/05/19 11:38:05;;;;;;;4.60;3.07;;;;;;;18.01;58.76;98538.56;263128;1099;115500;-67
2021/05/19 11:43:11;;;;;;;3.73;2.87;;;;;;;18.39;58.66;98540.05;262992;1101;114976;-67
2021/05/19 11:48:24;;;;;;;4.43;2.70;;;;;;;18.75;58.29;98537.30;262836;1098;114617;-68
2021/05/19 11:53:39;;;;;;;3.67;2.50;;;;;;;19.15;57.84;98525.84;263155;1103;114784;-68
2021/05/19 11:58:43;;;;;;;2.95;2.53;;;;;;;19.53;57.54;98530.86;263118;1099;115426;-67
2021/05/19 12:03:47;;;;;;;3.40;2.38;;;;;;;19.72;56.62;98518.97;263160;1103;115210;-67
2021/05/19 12:08:56;;;;;;;3.07;2.20;;;;;;;19.76;56.12;98525.72;263154;1098;115035;-67
2021/05/19 12:14:01;;;;;;;4.28;2.55;;;;;;;19.41;54.70;98522.24;263182;1102;115035;-67
2021/05/19 12:19:09;;;;;;;2.87;2.20;;;;;;;19.06;54.65;98526.00;263176;1099;115146;-67
2021/05/19 12:24:16;;;;;;;3.27;2.10;;;;;;;18.96;54.87;98520.72;263144;1103;114570;-68
2021/05/19 12:29:49;;;;;;;2.77;2.00;;;;;;;19.29;54.87;98508.22;263082;1100;114782;-66
2021/05/19 12:35:14;;;;;;;5.33;1.93;;;;;;;19.56;54.47;98507.08;263160;1101;114849;-68
2021/05/19 12:40:21;;;;;;;4.38;1.60;;;;;;;19.47;53.87;98508.09;263160;1099;115217;-68
2021/05/19 12:45:32;;;;;;;2.47;1.50;;;;;;;19.25;52.75;98514.09;263178;1102;114946;-67
2021/05/19 12:50:58;;;;;;;4.63;3.10;;;;;;;18.98;53.18;98539.42;263165;1098;114887;-67
2021/05/19 12:56:12;;;;;;;8.03;2.40;;;;;;;18.53;53.46;98535.93;263130;1103;115248;-68
2021/05/19 13:01:19;;;;;;;4.57;2.33;;;;;;;18.11;53.20;98536.63;263121;1099;114547;-68
2021/05/19 13:06:27;;;;;;;4.78;2.03;;;;;;;17.96;53.78;98548.93;263128;1101;115060;-68
2021/05/19 13:11:32;;;;;;;5.00;2.40;;;;;;;17.70;54.58;98546.98;263154;1099;114650;-68
2021/05/19 13:16:45;;;;;;;4.63;3.10;;;;;;;17.38;55.02;98552.83;263183;1102;114652;-67
2021/05/19 13:21:52;;;;;;;8.67;3.33;;;;;;;17.07;55.75;98548.76;263055;1100;116360;-68
2021/05/19 13:27:05;;;;;;;6.67;2.90;;;;;;;16.84;55.30;98543.74;263115;1103;115211;-68
2021/05/19 13:32:20;;;;;;;7.08;3.28;;;;;;;16.67;56.23;98542.63;263160;1099;114789;-66
2021/05/19 13:37:25;;;;;;;3.40;2.50;;;;;;;16.68;56.71;98541.66;263199;1098;115039;-68
2021/05/19 13:42:28;;;;;;;4.73;2.10;;;;;;;16.68;56.81;98527.38;263174;1100;115445;-68
2021/05/19 13:47:32;;;;;;;4.37;2.20;;;;;;;16.69;57.01;98527.22;263143;1102;114682;-68
2021/05/19 13:52:39;;;;;;;3.30;2.43;;;;;;;16.67;56.97;98523.82;263092;1098;114966;-69
2021/05/19 13:57:45;;;;;;;2.75;2.03;;;;;;;16.64;56.75;98523.27;263157;1102;114676;-67
2021/05/19 14:02:49;;;;;;;2.90;1.70;;;;;;;17.14;57.26;98521.12;263174;1099;115119;-67
2021/05/19 14:07:53;;;;;;;3.30;1.48;;;;;;;17.67;56.08;98523.06;263171;1101;114227;-67
2021/05/19 14:13:04;;;;;;;2.28;1.50;;;;;;;18.24;55.99;98527.28;263173;1100;114565;-67
2021/05/19 14:18:26;;;;;;;3.77;2.10;;;;;;;18.71;55.14;98510.77;263057;1101;114683;-68
2021/05/19 14:28:53;;;;;;;3.33;2.80;;;;;;;18.60;53.90;98515.42;263069;1100;114535;-68
2021/05/19 14:33:57;;;;;;;3.07;1.90;;;;;;;18.48;53.56;98514.02;263134;1103;115069;-69
2021/05/19 15:00:17;;;;;;;3.40;2.23;;;;;;;18.05;54.07;98537.24;263122;1098;114823;-68
2021/05/19 15:05:21;;;;;;;7.97;2.53;;;;;;;17.98;54.35;98538.86;262949;1099;114354;-68
2021/05/19 15:10:24;;;;;;;3.10;2.30;;;;;;;17.87;53.90;98539.95;263084;1098;115091;-68
2021/05/19 15:15:28;;;;;;;3.58;2.25;;;;;;;17.71;53.51;98551.36;263069;1104;114690;-68
2021/05/19 15:20:32;;;;;;;5.80;1.90;;;;;;;17.58;53.52;98547.34;263121;1102;115410;-68
2021/05/19 15:25:36;;;;;;;3.63;2.40;;;;;;;17.44;53.19;98546.86;263141;1101;114292;-68
2021/05/19 15:30:57;;;;;;;6.43;2.20;;;;;;;17.30;53.31;98549.22;263137;1100;115397;-68
2021/05/19 15:36:07;;;;;;;4.30;1.80;;;;;;;17.15;53.02;98555.09;263141;1102;114989;-69
2021/05/19 15:41:11;;;;;;;4.50;2.00;;;;;;;17.05;53.45;98543.55;263075;1099;114497;-68
2021/05/19 15:46:15;;;;;;;6.20;4.23;;;;;;;16.98;53.30;98553.16;263129;1103;114625;-69
2021/05/19 15:51:19;;;;;;;3.65;2.15;;;;;;;16.93;53.57;98544.72;263138;1098;115459;-68
2021/05/19 15:56:25;;;;;;;4.30;2.13;;;;;;;16.87;53.52;98550.67;263131;1103;115214;-67
2021/05/19 16:01:29;;;;;;;2.45;1.93;;;;;;;16.85;53.55;98547.27;263044;1099;114816;-68
2021/05/19 16:06:34;;;;;;;5.98;3.10;;;;;;;16.81;53.32;98548.56;263141;1103;114218;-67
2021/05/19 16:11:38;;;;;;;;;;;;;;;16.76;53.02;98559.77;263114;1098;115174;-68
2021/05/19 16:16:41;;;;;;;3.03;1.70;;;;;;;16.64;53.26;98567.10;263222;1103;101387;-68
2021/05/19 16:21:45;;;;;;;5.67;1.40;;;;;;;16.53;52.87;98572.65;263116;1103;114787;-67
2021/05/19 16:26:49;;;;;;;2.50;1.50;;;;;;;16.39;52.75;98568.57;263062;1102;115061;-67
2021/05/19 16:31:52;;;;;;;6.90;1.68;;;;;;;16.22;52.57;98580.88;263088;1098;115078;-68
2021/05/19 16:37:05;;;;;;;4.10;1.60;;;;;;;16.05;52.57;98581.59;263104;1100;114509;-68
2021/05/19 16:42:14;;;;;;;4.97;1.40;;;;;;;15.86;53.09;98577.05;263106;1098;115003;-67
2021/05/19 16:47:17;;;;;;;3.70;2.80;;;;;;;15.64;53.26;98574.61;263109;1103;114906;-68
2021/05/19 16:52:21;;;;;;;4.68;1.65;;;;;;;15.43;53.75;98563.98;263085;1099;114710;-67
2021/05/19 16:57:25;;;;;;;4.20;1.68;;;;;;;15.25;54.51;98570.01;263105;1102;114371;-67
2021/05/19 17:07:53;;;;;;;2.07;1.60;;;;;;;15.02;55.33;98580.07;263105;1104;114485;-68
2021/05/19 17:12:59;;;;;;;2.20;1.80;;;;;;;14.98;55.29;98575.09;262817;1104;115147;-67
2021/05/19 17:18:04;;;;;;;3.93;2.20;;;;;;;14.94;55.66;98573.67;263096;1101;115373;-67
2021/05/19 17:23:08;;;;;;;2.58;2.13;;;;;;;14.90;55.67;98567.73;263089;1099;115414;-68
2021/05/19 17:28:11;;;;;;;2.13;1.60;;;;;;;14.86;56.50;98579.70;263050;1104;114669;-67
2021/05/19 17:33:18;;;;;;;3.37;1.63;;;;;;;14.80;56.33;98594.47;263049;1098;114853;-68
2021/05/19 17:38:22;;;;;;;4.00;2.13;;;;;;;14.77;56.80;98597.41;263105;1102;114701;-66
2021/05/19 17:43:26;;;;;;;4.57;2.30;;;;;;;14.71;56.59;98595.29;263053;1098;115229;-68
2021/05/19 17:48:29;;;;;;;4.13;2.50;;;;;;;14.66;56.81;98586.78;263150;1104;115402;-67
2021/05/19 17:53:33;;;;;;;8.08;2.60;;;;;;;14.63;57.11;98587.89;263088;1099;114290;-67
2021/05/19 17:58:37;;;;;;;4.28;2.73;;;;;;;14.60;57.10;98592.66;263076;1104;115157;-67
2021/05/19 18:03:42;;;;;;;4.20;2.53;;;;;;;14.55;57.50;98589.55;262996;1103;114981;-68
2021/05/19 18:08:45;;;;;;;3.93;2.58;;;;;;;14.49;57.48;98590.03;263042;1103;114721;-68
2021/05/19 18:13:49;;;;;;;6.28;2.80;;;;;;;14.45;57.87;98602.83;263133;1098;115313;-66
2021/05/19 18:18:54;;;;;;;6.77;2.67;;;;;;;14.44;58.12;98609.18;263153;1103;114455;-68
2021/05/19 18:23:59;;;;;;;5.70;2.80;;;;;;;14.40;57.80;98610.39;263067;1098;114758;-68
2021/05/19 18:29:10;;;;;;;7.05;3.10;;;;;;;14.35;57.99;98613.47;263091;1102;114878;-67
2021/05/19 18:35:00;;;;;;;6.78;3.40;;;;;;;14.31;58.46;98628.09;263034;1100;114656;-68
2021/05/19 18:39:45;;;;;;;6.65;4.60;;;;;;;14.23;58.91;98625.19;263027;1104;115395;-69
2021/05/19 18:44:52;;;;;;;7.93;4.00;;;;;;;14.17;59.26;98620.38;263044;1099;114247;-68
2021/05/19 18:50:08;;;;;;;8.03;4.30;;;;;;;14.12;59.23;98636.80;263117;1102;114899;-68
2021/05/19 18:55:12;;;;;;;8.40;4.30;;;;;;;14.12;59.24;98641.30;263091;1103;114829;-68
2021/05/19 19:00:18;;;;;;;7.38;4.28;;;;;;;14.14;58.82;98644.72;263048;1103;114966;-67
2021/05/19 19:05:27;;;;;;;12.30;4.73;;;;;;;14.13;59.21;98648.34;263118;1100;114754;-68
2021/05/19 19:10:31;;;;;;;11.83;4.73;;;;;;;14.14;59.74;98642.89;263135;1101;114932;-67
2021/05/19 19:15:34;;;;;;;9.40;4.90;;;;;;;14.12;59.24;98657.36;263071;1099;114890;-67
2021/05/19 19:20:38;;;;;;;10.07;5.00;;;;;;;14.08;59.49;98656.77;263102;1101;114736;-68
2021/05/19 19:25:42;;;;;;;7.20;5.47;;;;;;;14.07;59.66;98660.43;263107;1099;114385;-68
2021/05/19 19:30:47;;;;;;;7.60;5.63;;;;;;;14.03;59.98;98663.47;263109;1103;114721;-69
2021/05/19 19:35:51;;;;;;;9.88;5.55;;;;;;;14.01;60.38;98660.08;263155;1098;114351;-67
2021/05/19 19:40:55;;;;;;;11.18;6.65;;;;;;;13.91;60.44;98659.98;263124;1101;115656;-68
2021/05/19 19:45:59;;;;;;;10.10;6.83;;;;;;;13.85;60.79;98660.48;263071;1101;115386;-68
2021/05/19 19:51:08;;;;;;;15.00;9.67;;;;;;;13.79;60.33;98674.34;263105;1103;114479;-68
2021/05/19 19:56:12;;;;;;;15.30;8.53;;;;;;;13.78;60.88;98665.48;263220;1099;114925;-65
2021/05/19 20:01:16;;;;;;;15.43;7.00;;;;;;;13.82;61.02;98674.09;263177;1103;116104;-67
2021/05/19 20:06:20;;;;;;;12.53;7.70;;;;;;;13.80;61.55;98670.72;263145;1099;115190;-66
2021/05/19 20:11:24;;;;;;;15.70;7.90;;;;;;;13.73;61.28;98665.86;263178;1101;119386;-67
2021/05/19 20:16:28;;;;;;;13.20;8.25;;;;;;;13.68;61.59;98675.22;263107;1099;115984;-66
2021/05/19 20:21:32;;;;;;;15.30;9.23;;;;;;;13.61;61.94;98680.20;263209;1103;115268;-66
2021/05/19 20:26:37;;;;;;;15.90;8.67;;;;;;;13.52;61.59;98670.27;263191;1098;114950;-66
2021/05/19 20:31:46;;;;;;;15.77;8.70;;;;;;;13.43;62.01;98671.00;263156;1103;115512;-67
2021/05/19 20:36:52;;;;;;;17.53;9.07;;;;;;;13.35;62.04;98673.41;263127;1101;114449;-66
2021/05/19 20:41:56;;;;;;;14.70;9.17;;;;;;;13.29;62.24;98677.44;263089;1103;115086;-66
2021/05/19 20:47:01;;;;;;;14.73;9.03;;;;;;;13.27;62.42;98679.37;263143;1098;115186;-65
2021/05/19 20:52:05;;;;;;;;;;;;;;;13.29;62.30;98689.95;263198;1103;115320;-66
2021/05/19 20:57:09;;;;;;;13.30;9.67;;;;;;;13.27;62.78;98681.20;263244;1099;101844;-65
2021/05/19 21:02:13;;;;;;;19.40;9.53;;;;;;;13.24;61.85;98676.94;263140;1103;115412;-65
2021/05/19 21:07:17;;;;;;;16.77;9.67;;;;;;;13.16;63.12;98674.84;263113;1098;114793;-65
2021/05/19 21:12:26;;;;;;;20.05;10.18;;;;;;;13.07;62.43;98680.05;263185;1101;115515;-66
2021/05/19 21:17:31;;;;;;;15.40;8.98;;;;;;;12.97;62.54;98694.11;262493;1099;114768;-65
2021/05/19 21:22:35;;;;;;;14.13;8.55;;;;;;;12.94;62.58;98682.81;262733;1103;114231;-67
2021/05/19 21:27:40;;;;;;;16.10;7.40;;;;;;;12.96;62.43;98687.08;263176;1103;114802;-65
2021/05/19 21:32:45;;;;;;;;;;;;;;;13.03;62.56;98684.78;262367;1102;115134;-65
2021/05/19 21:37:52;;;;;;;11.90;7.45;;;;;;;13.05;61.99;98693.55;263211;1099;101226;-66
2021/05/19 21:42:57;;;;;;;12.13;6.73;;;;;;;13.07;61.95;98691.58;263215;1102;114655;-66
2021/05/19 21:48:01;;;;;;;11.70;6.80;;;;;;;13.11;62.10;98692.19;263251;1098;114994;-65
2021/05/19 21:53:06;;;;;;;11.75;6.50;;;;;;;13.10;61.85;98686.00;263087;1103;114681;-68
2021/05/19 21:58:10;;;;;;;10.23;7.43;;;;;;;13.11;61.92;98693.07;263103;1100;115163;-67
2021/05/19 22:03:17;;;;;;;;;;;;;;;13.08;61.79;98692.45;262558;1104;114516;-65
2021/05/19 22:08:23;;;;;;;11.25;6.03;;;;;;;13.03;62.16;98688.30;263263;1099;101292;-64
2021/05/19 22:13:29;;;;;;;8.03;6.07;;;;;;;13.01;61.73;98686.74;262700;1101;114637;-64
2021/05/19 22:18:45;;;;;;;11.57;6.50;;;;;;;12.99;61.58;98686.84;262952;1103;114177;-64
2021/05/19 22:29:24;;;;;;;9.40;6.45;;;;;;;12.96;61.65;98695.09;262694;1099;114348;-65
2021/05/19 22:34:30;;;;;;;10.83;6.48;;;;;;;12.96;62.24;98691.58;262959;1102;114672;-64
2021/05/19 22:39:35;;;;;;;10.30;7.08;;;;;;;12.99;61.43;98702.88;263150;1098;114812;-64
2021/05/19 22:44:39;;;;;;;9.00;6.33;;;;;;;13.03;61.91;98696.31;262575;1102;114785;-64
2021/05/19 22:49:43;;;;;;;9.75;5.98;;;;;;;13.09;61.98;98691.48;262440;1099;114785;-65
2021/05/19 22:54:50;;;;;;;9.48;6.28;;;;;;;13.09;61.65;98697.67;263216;1102;115154;-65
2021/05/19 22:59:54;;;;;;;9.30;5.60;;;;;;;13.09;61.84;98696.83;263220;1099;114911;-66
2021/05/19 23:04:58;;;;;;;12.85;5.65;;;;;;;13.06;62.17;98700.58;262140;1101;114393;-66
2021/05/19 23:10:07;;;;;;;9.35;6.25;;;;;;;13.03;61.99;98690.13;263211;1099;114455;-67
2021/05/19 23:15:12;;;;;;;8.47;6.00;;;;;;;13.02;61.90;98686.61;262851;1100;115637;-67
2021/05/19 23:20:16;;;;;;;9.45;6.30;;;;;;;12.99;61.67;98689.52;263222;1099;115412;-64
2021/05/19 23:25:21;;;;;;;10.93;6.00;;;;;;;12.99;61.54;98700.20;263183;1103;114628;-64
2021/05/19 23:30:28;;;;;;;9.83;5.93;;;;;;;12.97;61.81;98698.61;263200;1098;115008;-65
2021/05/19 23:35:33;;;;;;;7.63;5.53;;;;;;;12.93;62.24;98695.33;262921;1101;114694;-64
2021/05/19 23:40:37;;;;;;;7.93;5.70;;;;;;;12.96;61.62;98695.09;262267;1099;115379;-65
2021/05/19 23:45:42;;;;;;;11.18;6.05;;;;;;;13.00;62.40;98693.88;262914;1103;114673;-64
2021/05/19 23:50:48;;;;;;;9.60;6.20;;;;;;;13.03;62.63;98698.98;263101;1099;114508;-65
2021/05/19 23:55:53;;;;;;;9.35;6.15;;;;;;;13.06;62.49;98686.38;262978;1101;115330;-68
